sensor_id;sensor_type;location;lat;lon;timestamp;temperature;humidity
12481;DHT22;6305;48.398;11.762;2022-12-04T00:00:46;1.10;99.90
12481;DHT22;6305;48.398;11.762;2022-12-04T00:03:12;1.10;99.90
12481;DHT22;6305;48.398;11.762;2022-12-04T00:05:40;1.10;99.90
12481;DHT22;6305;48.398;11.762;2022-12-04T00:08:07;1.10;99.90
12481;DHT22;6305;48.398;11.762;2022-12-04T00:10:34;1.10;99.90
12481;DHT22;6305;48.398;11.762;2022-12-04T00:13:01;1.10;99.90
12481;DHT22;6305;48.398;11.762;2022-12-04T00:15:28;1.10;99.90
12481;DHT22;6305;48.398;11.762;2022-12-04T00:17:55;1.10;99.90
12481;DHT22;6305;48.398;11.762;2022-12-04T00:20:22;1.10;99.90
12481;DHT22;6305;48.398;11.762;2022-12-04T00:22:50;1.10;99.90
12481;DHT22;6305;48.398;11.762;2022-12-04T00:25:17;1.10;99.90
12481;DHT22;6305;48.398;11.762;2022-12-04T00:27:44;1.10;99.90
12481;DHT22;6305;48.398;11.762;2022-12-04T00:30:12;1.20;99.90
12481;DHT22;6305;48.398;11.762;2022-12-04T00:32:39;1.10;99.90
12481;DHT22;6305;48.398;11.762;2022-12-04T00:35:06;1.10;99.90
12481;DHT22;6305;48.398;11.762;2022-12-04T00:37:34;1.10;99.90
12481;DHT22;6305;48.398;11.762;2022-12-04T00:40:03;1.20;99.90
12481;DHT22;6305;48.398;11.762;2022-12-04T00:42:30;1.10;99.90
12481;DHT22;6305;48.398;11.762;2022-12-04T00:44:57;1.10;99.90
12481;DHT22;6305;48.398;11.762;2022-12-04T00:47:23;1.20;99.90
12481;DHT22;6305;48.398;11.762;2022-12-04T00:49:50;1.20;99.90
12481;DHT22;6305;48.398;11.762;2022-12-04T00:52:17;1.10;99.90
12481;DHT22;6305;48.398;11.762;2022-12-04T00:54:44;1.20;99.90
12481;DHT22;6305;48.398;11.762;2022-12-04T00:57:12;1.10;99.90
12481;DHT22;6305;48.398;11.762;2022-12-04T00:59:39;1.20;99.90
12481;DHT22;6305;48.398;11.762;2022-12-04T01:02:05;1.20;99.90
12481;DHT22;6305;48.398;11.762;2022-12-04T01:04:32;1.20;99.90
12481;DHT22;6305;48.398;11.762;2022-12-04T01:06:59;1.20;99.90
12481;DHT22;6305;48.398;11.762;2022-12-04T01:09:25;1.20;99.90
12481;DHT22;6305;48.398;11.762;2022-12-04T01:11:52;1.20;99.90
12481;DHT22;6305;48.398;11.762;2022-12-04T01:14:20;1.20;99.90
12481;DHT22;6305;48.398;11.762;2022-12-04T01:16:47;1.20;99.90
12481;DHT22;6305;48.398;11.762;2022-12-04T01:19:14;1.20;99.90
12481;DHT22;6305;48.398;11.762;2022-12-04T01:21:41;1.20;99.90
12481;DHT22;6305;48.398;11.762;2022-12-04T01:24:08;1.20;99.90
12481;DHT22;6305;48.398;11.762;2022-12-04T01:26:35;1.30;99.90
12481;DHT22;6305;48.398;11.762;2022-12-04T01:29:02;1.30;99.90
12481;DHT22;6305;48.398;11.762;2022-12-04T01:31:30;1.30;99.90
12481;DHT22;6305;48.398;11.762;2022-12-04T01:33:57;1.30;99.90
12481;DHT22;6305;48.398;11.762;2022-12-04T01:36:25;1.30;99.90
12481;DHT22;6305;48.398;11.762;2022-12-04T01:38:53;1.30;99.90
12481;DHT22;6305;48.398;11.762;2022-12-04T01:41:22;1.30;99.90
12481;DHT22;6305;48.398;11.762;2022-12-04T01:44:06;1.30;99.90
12481;DHT22;6305;48.398;11.762;2022-12-04T01:46:34;1.30;99.90
12481;DHT22;6305;48.398;11.762;2022-12-04T01:49:02;1.40;99.90
12481;DHT22;6305;48.398;11.762;2022-12-04T01:51:33;1.40;99.90
12481;DHT22;6305;48.398;11.762;2022-12-04T01:54:04;1.40;99.90
12481;DHT22;6305;48.398;11.762;2022-12-04T01:56:37;1.40;99.90
12481;DHT22;6305;48.398;11.762;2022-12-04T01:59:06;1.40;99.90
12481;DHT22;6305;48.398;11.762;2022-12-04T02:01:39;1.40;99.90
12481;DHT22;6305;48.398;11.762;2022-12-04T02:04:08;1.40;99.90
12481;DHT22;6305;48.398;11.762;2022-12-04T02:06:35;1.40;99.90
12481;DHT22;6305;48.398;11.762;2022-12-04T02:09:02;1.40;99.90
12481;DHT22;6305;48.398;11.762;2022-12-04T02:11:34;1.40;99.90
12481;DHT22;6305;48.398;11.762;2022-12-04T02:14:09;1.40;99.90
12481;DHT22;6305;48.398;11.762;2022-12-04T02:16:45;1.40;99.90
12481;DHT22;6305;48.398;11.762;2022-12-04T02:19:40;1.40;99.90
12481;DHT22;6305;48.398;11.762;2022-12-04T02:22:23;1.40;99.90
12481;DHT22;6305;48.398;11.762;2022-12-04T02:24:52;1.40;99.90
12481;DHT22;6305;48.398;11.762;2022-12-04T02:30:05;1.40;99.90
12481;DHT22;6305;48.398;11.762;2022-12-04T02:32:37;1.40;99.90
12481;DHT22;6305;48.398;11.762;2022-12-04T02:35:11;1.50;99.90
12481;DHT22;6305;48.398;11.762;2022-12-04T02:37:43;1.50;99.90
12481;DHT22;6305;48.398;11.762;2022-12-04T02:40:15;1.50;99.90
12481;DHT22;6305;48.398;11.762;2022-12-04T02:42:49;1.50;99.90
12481;DHT22;6305;48.398;11.762;2022-12-04T02:45:23;1.50;99.90
12481;DHT22;6305;48.398;11.762;2022-12-04T02:47:52;1.50;99.90
12481;DHT22;6305;48.398;11.762;2022-12-04T02:50:20;1.50;99.90
12481;DHT22;6305;48.398;11.762;2022-12-04T02:52:50;1.50;99.90
12481;DHT22;6305;48.398;11.762;2022-12-04T02:55:22;1.50;99.90
12481;DHT22;6305;48.398;11.762;2022-12-04T02:57:55;1.60;99.90
12481;DHT22;6305;48.398;11.762;2022-12-04T03:00:26;1.60;99.90
12481;DHT22;6305;48.398;11.762;2022-12-04T03:02:57;1.60;99.90
12481;DHT22;6305;48.398;11.762;2022-12-04T03:05:28;1.60;99.90
12481;DHT22;6305;48.398;11.762;2022-12-04T03:08:03;1.60;99.90
12481;DHT22;6305;48.398;11.762;2022-12-04T03:10:34;1.60;99.90
12481;DHT22;6305;48.398;11.762;2022-12-04T03:13:07;1.60;99.90
12481;DHT22;6305;48.398;11.762;2022-12-04T03:15:40;1.60;99.90
12481;DHT22;6305;48.398;11.762;2022-12-04T03:18:13;1.60;99.90
12481;DHT22;6305;48.398;11.762;2022-12-04T03:20:42;1.60;99.90
12481;DHT22;6305;48.398;11.762;2022-12-04T03:23:15;1.60;99.90
12481;DHT22;6305;48.398;11.762;2022-12-04T03:25:47;1.70;99.90
12481;DHT22;6305;48.398;11.762;2022-12-04T03:28:21;1.70;99.90
12481;DHT22;6305;48.398;11.762;2022-12-04T03:30:58;1.70;99.90
12481;DHT22;6305;48.398;11.762;2022-12-04T03:33:30;1.60;99.90
12481;DHT22;6305;48.398;11.762;2022-12-04T03:36:04;1.70;99.90
12481;DHT22;6305;48.398;11.762;2022-12-04T03:38:38;1.70;99.90
12481;DHT22;6305;48.398;11.762;2022-12-04T03:41:12;1.70;99.90
12481;DHT22;6305;48.398;11.762;2022-12-04T03:43:49;1.70;99.90
12481;DHT22;6305;48.398;11.762;2022-12-04T03:46:25;1.70;99.90
12481;DHT22;6305;48.398;11.762;2022-12-04T03:48:57;1.70;99.90
12481;DHT22;6305;48.398;11.762;2022-12-04T03:51:31;1.70;99.90
12481;DHT22;6305;48.398;11.762;2022-12-04T03:54:04;1.70;99.90
12481;DHT22;6305;48.398;11.762;2022-12-04T03:56:37;1.70;99.90
12481;DHT22;6305;48.398;11.762;2022-12-04T03:59:09;1.70;99.90
12481;DHT22;6305;48.398;11.762;2022-12-04T04:01:41;1.70;99.90
12481;DHT22;6305;48.398;11.762;2022-12-04T04:04:14;1.80;99.90
12481;DHT22;6305;48.398;11.762;2022-12-04T04:06:46;1.80;99.90
12481;DHT22;6305;48.398;11.762;2022-12-04T04:09:18;1.80;99.90
12481;DHT22;6305;48.398;11.762;2022-12-04T04:11:49;1.80;99.90
12481;DHT22;6305;48.398;11.762;2022-12-04T04:14:23;1.80;99.90
12481;DHT22;6305;48.398;11.762;2022-12-04T04:17:11;1.80;99.90
12481;DHT22;6305;48.398;11.762;2022-12-04T04:19:59;1.80;99.90
12481;DHT22;6305;48.398;11.762;2022-12-04T04:22:48;1.80;99.90
12481;DHT22;6305;48.398;11.762;2022-12-04T04:25:35;1.80;99.90
12481;DHT22;6305;48.398;11.762;2022-12-04T04:28:04;1.80;99.90
12481;DHT22;6305;48.398;11.762;2022-12-04T04:30:32;1.80;99.90
12481;DHT22;6305;48.398;11.762;2022-12-04T04:33:05;1.90;99.90
12481;DHT22;6305;48.398;11.762;2022-12-04T04:35:38;1.90;99.90
12481;DHT22;6305;48.398;11.762;2022-12-04T04:38:12;1.80;99.90
12481;DHT22;6305;48.398;11.762;2022-12-04T04:40:46;1.80;99.90
12481;DHT22;6305;48.398;11.762;2022-12-04T04:43:19;1.90;99.90
12481;DHT22;6305;48.398;11.762;2022-12-04T04:45:53;1.90;99.90
12481;DHT22;6305;48.398;11.762;2022-12-04T04:48:26;1.90;99.90
12481;DHT22;6305;48.398;11.762;2022-12-04T04:50:55;1.90;99.90
12481;DHT22;6305;48.398;11.762;2022-12-04T04:53:25;1.90;99.90
12481;DHT22;6305;48.398;11.762;2022-12-04T04:55:53;1.90;99.90
12481;DHT22;6305;48.398;11.762;2022-12-04T04:58:20;1.90;99.90
12481;DHT22;6305;48.398;11.762;2022-12-04T05:00:55;1.90;99.90
12481;DHT22;6305;48.398;11.762;2022-12-04T05:03:25;1.90;99.90
12481;DHT22;6305;48.398;11.762;2022-12-04T05:05:52;1.90;99.90
12481;DHT22;6305;48.398;11.762;2022-12-04T05:08:19;1.80;99.90
12481;DHT22;6305;48.398;11.762;2022-12-04T05:10:45;1.90;99.90
12481;DHT22;6305;48.398;11.762;2022-12-04T05:13:13;1.80;99.90
12481;DHT22;6305;48.398;11.762;2022-12-04T05:15:40;1.90;99.90
12481;DHT22;6305;48.398;11.762;2022-12-04T05:18:12;1.80;99.90
12481;DHT22;6305;48.398;11.762;2022-12-04T05:20:40;1.90;99.90
12481;DHT22;6305;48.398;11.762;2022-12-04T05:23:06;1.80;99.90
12481;DHT22;6305;48.398;11.762;2022-12-04T05:25:35;1.90;99.90
12481;DHT22;6305;48.398;11.762;2022-12-04T05:28:02;1.90;99.90
12481;DHT22;6305;48.398;11.762;2022-12-04T05:30:29;1.90;99.90
12481;DHT22;6305;48.398;11.762;2022-12-04T05:32:56;1.90;99.90
12481;DHT22;6305;48.398;11.762;2022-12-04T05:35:22;1.90;99.90
12481;DHT22;6305;48.398;11.762;2022-12-04T05:37:50;1.90;99.90
12481;DHT22;6305;48.398;11.762;2022-12-04T05:40:17;1.90;99.90
12481;DHT22;6305;48.398;11.762;2022-12-04T05:42:44;1.90;99.90
12481;DHT22;6305;48.398;11.762;2022-12-04T05:45:11;2.00;99.90
12481;DHT22;6305;48.398;11.762;2022-12-04T05:47:38;2.00;99.90
12481;DHT22;6305;48.398;11.762;2022-12-04T05:50:06;1.90;99.90
12481;DHT22;6305;48.398;11.762;2022-12-04T05:52:34;2.00;99.90
12481;DHT22;6305;48.398;11.762;2022-12-04T05:55:02;1.90;99.90
12481;DHT22;6305;48.398;11.762;2022-12-04T05:57:29;2.00;99.90
12481;DHT22;6305;48.398;11.762;2022-12-04T05:59:56;2.00;99.90
12481;DHT22;6305;48.398;11.762;2022-12-04T06:02:22;2.00;99.90
12481;DHT22;6305;48.398;11.762;2022-12-04T06:04:50;2.00;99.90
12481;DHT22;6305;48.398;11.762;2022-12-04T06:07:16;2.00;99.90
12481;DHT22;6305;48.398;11.762;2022-12-04T06:09:43;2.00;99.90
12481;DHT22;6305;48.398;11.762;2022-12-04T06:12:11;2.00;99.90
12481;DHT22;6305;48.398;11.762;2022-12-04T06:14:38;2.00;99.90
12481;DHT22;6305;48.398;11.762;2022-12-04T06:17:05;2.00;99.90
12481;DHT22;6305;48.398;11.762;2022-12-04T06:19:32;2.00;99.90
12481;DHT22;6305;48.398;11.762;2022-12-04T06:21:59;2.10;99.90
12481;DHT22;6305;48.398;11.762;2022-12-04T06:24:26;2.00;99.90
12481;DHT22;6305;48.398;11.762;2022-12-04T06:26:55;2.10;99.90
12481;DHT22;6305;48.398;11.762;2022-12-04T06:29:23;2.00;99.90
12481;DHT22;6305;48.398;11.762;2022-12-04T06:31:50;2.00;99.90
12481;DHT22;6305;48.398;11.762;2022-12-04T06:34:17;2.10;99.90
12481;DHT22;6305;48.398;11.762;2022-12-04T06:36:44;2.00;99.90
12481;DHT22;6305;48.398;11.762;2022-12-04T06:39:11;2.10;99.90
12481;DHT22;6305;48.398;11.762;2022-12-04T06:41:38;2.10;99.90
12481;DHT22;6305;48.398;11.762;2022-12-04T06:44:04;2.10;99.90
12481;DHT22;6305;48.398;11.762;2022-12-04T06:46:33;2.10;99.90
12481;DHT22;6305;48.398;11.762;2022-12-04T06:49:01;2.10;99.90
12481;DHT22;6305;48.398;11.762;2022-12-04T06:51:30;2.10;99.90
12481;DHT22;6305;48.398;11.762;2022-12-04T06:53:57;2.10;99.90
12481;DHT22;6305;48.398;11.762;2022-12-04T06:56:28;2.10;99.90
12481;DHT22;6305;48.398;11.762;2022-12-04T06:58:56;2.10;99.90
12481;DHT22;6305;48.398;11.762;2022-12-04T07:01:25;2.10;99.90
12481;DHT22;6305;48.398;11.762;2022-12-04T07:03:54;2.10;99.90
12481;DHT22;6305;48.398;11.762;2022-12-04T07:06:24;2.10;99.90
12481;DHT22;6305;48.398;11.762;2022-12-04T07:08:52;2.10;99.90
12481;DHT22;6305;48.398;11.762;2022-12-04T07:11:20;2.10;99.90
12481;DHT22;6305;48.398;11.762;2022-12-04T07:13:47;2.10;99.90
12481;DHT22;6305;48.398;11.762;2022-12-04T07:16:16;2.20;99.90
12481;DHT22;6305;48.398;11.762;2022-12-04T07:18:44;2.10;99.90
12481;DHT22;6305;48.398;11.762;2022-12-04T07:21:18;2.20;99.90
12481;DHT22;6305;48.398;11.762;2022-12-04T07:23:48;2.20;99.90
12481;DHT22;6305;48.398;11.762;2022-12-04T07:26:15;2.20;99.90
12481;DHT22;6305;48.398;11.762;2022-12-04T07:28:43;2.20;99.90
12481;DHT22;6305;48.398;11.762;2022-12-04T07:31:11;2.20;99.90
12481;DHT22;6305;48.398;11.762;2022-12-04T07:33:38;2.20;99.90
12481;DHT22;6305;48.398;11.762;2022-12-04T07:36:07;2.20;99.90
12481;DHT22;6305;48.398;11.762;2022-12-04T07:38:36;2.30;99.90
12481;DHT22;6305;48.398;11.762;2022-12-04T07:41:04;2.30;99.90
12481;DHT22;6305;48.398;11.762;2022-12-04T07:43:32;2.30;99.90
12481;DHT22;6305;48.398;11.762;2022-12-04T07:46:03;2.30;99.90
12481;DHT22;6305;48.398;11.762;2022-12-04T07:48:30;2.30;99.90
12481;DHT22;6305;48.398;11.762;2022-12-04T07:51:02;2.30;99.90
12481;DHT22;6305;48.398;11.762;2022-12-04T07:53:29;2.30;99.90
12481;DHT22;6305;48.398;11.762;2022-12-04T07:55:57;2.30;99.90
12481;DHT22;6305;48.398;11.762;2022-12-04T07:58:24;2.30;99.90
12481;DHT22;6305;48.398;11.762;2022-12-04T08:00:51;2.30;99.90
12481;DHT22;6305;48.398;11.762;2022-12-04T08:03:18;2.30;99.90
12481;DHT22;6305;48.398;11.762;2022-12-04T08:05:45;2.40;99.90
12481;DHT22;6305;48.398;11.762;2022-12-04T08:08:11;2.40;99.90
12481;DHT22;6305;48.398;11.762;2022-12-04T08:10:38;2.50;99.90
12481;DHT22;6305;48.398;11.762;2022-12-04T08:13:07;2.40;99.90
12481;DHT22;6305;48.398;11.762;2022-12-04T08:15:34;2.40;99.90
12481;DHT22;6305;48.398;11.762;2022-12-04T08:18:01;2.50;99.90
12481;DHT22;6305;48.398;11.762;2022-12-04T08:20:27;2.50;99.90
12481;DHT22;6305;48.398;11.762;2022-12-04T08:22:54;2.50;99.90
12481;DHT22;6305;48.398;11.762;2022-12-04T08:25:21;2.60;99.90
12481;DHT22;6305;48.398;11.762;2022-12-04T08:27:47;2.60;99.90
12481;DHT22;6305;48.398;11.762;2022-12-04T08:30:16;2.60;99.90
12481;DHT22;6305;48.398;11.762;2022-12-04T08:32:43;2.70;99.90
12481;DHT22;6305;48.398;11.762;2022-12-04T08:35:10;2.70;99.90
12481;DHT22;6305;48.398;11.762;2022-12-04T08:37:37;2.80;99.90
12481;DHT22;6305;48.398;11.762;2022-12-04T08:40:05;2.80;99.90
12481;DHT22;6305;48.398;11.762;2022-12-04T08:42:33;2.80;99.90
12481;DHT22;6305;48.398;11.762;2022-12-04T08:45:00;2.90;99.90
12481;DHT22;6305;48.398;11.762;2022-12-04T08:47:28;2.80;99.90
12481;DHT22;6305;48.398;11.762;2022-12-04T08:49:55;2.90;99.90
12481;DHT22;6305;48.398;11.762;2022-12-04T08:52:21;2.90;99.90
12481;DHT22;6305;48.398;11.762;2022-12-04T08:54:49;3.00;99.90
12481;DHT22;6305;48.398;11.762;2022-12-04T08:57:16;3.00;99.90
12481;DHT22;6305;48.398;11.762;2022-12-04T08:59:42;3.00;99.90
12481;DHT22;6305;48.398;11.762;2022-12-04T09:02:10;3.10;99.90
12481;DHT22;6305;48.398;11.762;2022-12-04T09:04:38;3.10;99.90
12481;DHT22;6305;48.398;11.762;2022-12-04T09:07:05;3.10;99.90
12481;DHT22;6305;48.398;11.762;2022-12-04T09:09:32;3.20;99.90
12481;DHT22;6305;48.398;11.762;2022-12-04T09:11:58;3.20;99.90
12481;DHT22;6305;48.398;11.762;2022-12-04T09:14:25;3.20;99.90
12481;DHT22;6305;48.398;11.762;2022-12-04T09:16:52;3.30;99.90
12481;DHT22;6305;48.398;11.762;2022-12-04T09:19:19;3.30;99.90
12481;DHT22;6305;48.398;11.762;2022-12-04T09:21:47;3.30;99.90
12481;DHT22;6305;48.398;11.762;2022-12-04T09:24:14;3.40;99.90
12481;DHT22;6305;48.398;11.762;2022-12-04T09:26:41;3.40;99.90
12481;DHT22;6305;48.398;11.762;2022-12-04T09:29:09;3.40;99.90
12481;DHT22;6305;48.398;11.762;2022-12-04T09:31:36;3.50;99.90
12481;DHT22;6305;48.398;11.762;2022-12-04T09:34:03;3.40;99.90
12481;DHT22;6305;48.398;11.762;2022-12-04T09:36:30;3.50;99.90
12481;DHT22;6305;48.398;11.762;2022-12-04T09:38:58;3.50;99.90
12481;DHT22;6305;48.398;11.762;2022-12-04T09:41:49;3.50;99.90
12481;DHT22;6305;48.398;11.762;2022-12-04T09:44:22;3.50;99.90
12481;DHT22;6305;48.398;11.762;2022-12-04T09:46:51;3.50;99.90
12481;DHT22;6305;48.398;11.762;2022-12-04T09:49:24;3.70;99.90
12481;DHT22;6305;48.398;11.762;2022-12-04T09:51:54;3.70;99.90
12481;DHT22;6305;48.398;11.762;2022-12-04T09:54:27;3.80;99.90
12481;DHT22;6305;48.398;11.762;2022-12-04T09:57:00;3.80;99.90
12481;DHT22;6305;48.398;11.762;2022-12-04T09:59:30;3.90;99.90
12481;DHT22;6305;48.398;11.762;2022-12-04T10:02:00;3.90;99.90
12481;DHT22;6305;48.398;11.762;2022-12-04T10:04:29;3.80;99.90
12481;DHT22;6305;48.398;11.762;2022-12-04T10:07:00;3.80;99.90
12481;DHT22;6305;48.398;11.762;2022-12-04T10:09:42;3.80;99.90
12481;DHT22;6305;48.398;11.762;2022-12-04T10:12:17;3.80;99.90
12481;DHT22;6305;48.398;11.762;2022-12-04T10:15:02;3.70;99.90
12481;DHT22;6305;48.398;11.762;2022-12-04T10:17:44;3.70;99.90
12481;DHT22;6305;48.398;11.762;2022-12-04T10:20:25;3.60;99.90
12481;DHT22;6305;48.398;11.762;2022-12-04T10:23:02;3.60;99.90
12481;DHT22;6305;48.398;11.762;2022-12-04T10:25:35;3.60;99.90
12481;DHT22;6305;48.398;11.762;2022-12-04T10:28:13;3.60;99.90
12481;DHT22;6305;48.398;11.762;2022-12-04T10:30:42;3.50;99.90
12481;DHT22;6305;48.398;11.762;2022-12-04T10:33:15;3.50;99.90
12481;DHT22;6305;48.398;11.762;2022-12-04T10:35:46;3.50;99.90
12481;DHT22;6305;48.398;11.762;2022-12-04T10:38:22;3.50;99.90
12481;DHT22;6305;48.398;11.762;2022-12-04T10:40:56;3.60;99.90
12481;DHT22;6305;48.398;11.762;2022-12-04T10:43:32;3.50;99.90
12481;DHT22;6305;48.398;11.762;2022-12-04T10:46:01;3.70;99.90
12481;DHT22;6305;48.398;11.762;2022-12-04T10:48:32;3.80;99.90
12481;DHT22;6305;48.398;11.762;2022-12-04T10:51:00;3.80;99.90
12481;DHT22;6305;48.398;11.762;2022-12-04T10:53:29;3.70;99.90
12481;DHT22;6305;48.398;11.762;2022-12-04T10:56:08;3.80;99.90
12481;DHT22;6305;48.398;11.762;2022-12-04T10:58:35;3.80;99.90
12481;DHT22;6305;48.398;11.762;2022-12-04T11:01:04;3.90;99.90
12481;DHT22;6305;48.398;11.762;2022-12-04T11:03:31;4.00;99.90
12481;DHT22;6305;48.398;11.762;2022-12-04T11:06:00;4.10;99.90
12481;DHT22;6305;48.398;11.762;2022-12-04T11:08:33;4.10;99.90
12481;DHT22;6305;48.398;11.762;2022-12-04T11:11:03;4.10;99.90
12481;DHT22;6305;48.398;11.762;2022-12-04T11:13:33;4.10;99.90
12481;DHT22;6305;48.398;11.762;2022-12-04T11:15:59;4.00;99.90
12481;DHT22;6305;48.398;11.762;2022-12-04T11:18:28;3.90;99.90
12481;DHT22;6305;48.398;11.762;2022-12-04T11:20:57;3.90;99.90
12481;DHT22;6305;48.398;11.762;2022-12-04T11:23:25;4.00;99.90
12481;DHT22;6305;48.398;11.762;2022-12-04T11:25:56;4.10;99.90
12481;DHT22;6305;48.398;11.762;2022-12-04T11:28:26;4.00;99.90
12481;DHT22;6305;48.398;11.762;2022-12-04T11:30:58;4.00;99.90
12481;DHT22;6305;48.398;11.762;2022-12-04T11:33:31;3.80;99.90
12481;DHT22;6305;48.398;11.762;2022-12-04T11:36:01;3.80;99.90
12481;DHT22;6305;48.398;11.762;2022-12-04T11:38:31;3.80;99.90
12481;DHT22;6305;48.398;11.762;2022-12-04T11:41:02;3.80;99.90
12481;DHT22;6305;48.398;11.762;2022-12-04T11:43:30;3.80;99.90
12481;DHT22;6305;48.398;11.762;2022-12-04T11:46:00;3.90;99.90
12481;DHT22;6305;48.398;11.762;2022-12-04T11:48:29;3.90;99.90
12481;DHT22;6305;48.398;11.762;2022-12-04T11:51:00;3.90;99.90
12481;DHT22;6305;48.398;11.762;2022-12-04T11:53:41;4.00;99.90
12481;DHT22;6305;48.398;11.762;2022-12-04T11:56:18;4.00;99.90
12481;DHT22;6305;48.398;11.762;2022-12-04T11:59:00;3.90;99.90
12481;DHT22;6305;48.398;11.762;2022-12-04T12:01:41;3.80;99.90
12481;DHT22;6305;48.398;11.762;2022-12-04T12:04:41;3.80;99.90
12481;DHT22;6305;48.398;11.762;2022-12-04T12:07:23;3.70;99.90
12481;DHT22;6305;48.398;11.762;2022-12-04T12:10:02;3.70;99.90
12481;DHT22;6305;48.398;11.762;2022-12-04T12:12:40;3.70;99.90
12481;DHT22;6305;48.398;11.762;2022-12-04T12:15:18;3.70;99.90
12481;DHT22;6305;48.398;11.762;2022-12-04T12:18:02;3.70;99.90
12481;DHT22;6305;48.398;11.762;2022-12-04T12:20:33;3.70;99.90
12481;DHT22;6305;48.398;11.762;2022-12-04T12:23:14;3.70;99.90
12481;DHT22;6305;48.398;11.762;2022-12-04T12:25:51;3.70;99.90
12481;DHT22;6305;48.398;11.762;2022-12-04T12:28:32;3.70;99.90
12481;DHT22;6305;48.398;11.762;2022-12-04T12:31:12;3.60;99.90
12481;DHT22;6305;48.398;11.762;2022-12-04T12:33:47;3.70;99.90
12481;DHT22;6305;48.398;11.762;2022-12-04T12:36:16;3.70;99.90
12481;DHT22;6305;48.398;11.762;2022-12-04T12:38:48;3.70;99.90
12481;DHT22;6305;48.398;11.762;2022-12-04T12:41:20;3.80;99.90
12481;DHT22;6305;48.398;11.762;2022-12-04T12:43:52;3.80;99.90
12481;DHT22;6305;48.398;11.762;2022-12-04T12:46:22;3.80;99.90
12481;DHT22;6305;48.398;11.762;2022-12-04T12:48:57;3.70;99.90
12481;DHT22;6305;48.398;11.762;2022-12-04T12:51:32;3.70;99.90
12481;DHT22;6305;48.398;11.762;2022-12-04T12:54:08;3.60;99.90
12481;DHT22;6305;48.398;11.762;2022-12-04T12:56:38;3.70;99.90
12481;DHT22;6305;48.398;11.762;2022-12-04T12:59:11;3.60;99.90
12481;DHT22;6305;48.398;11.762;2022-12-04T13:01:44;3.60;99.90
12481;DHT22;6305;48.398;11.762;2022-12-04T13:04:19;3.60;99.90
12481;DHT22;6305;48.398;11.762;2022-12-04T13:06:52;3.60;99.90
12481;DHT22;6305;48.398;11.762;2022-12-04T13:09:21;3.70;99.90
12481;DHT22;6305;48.398;11.762;2022-12-04T13:11:52;3.70;99.90
12481;DHT22;6305;48.398;11.762;2022-12-04T13:14:19;3.70;99.90
12481;DHT22;6305;48.398;11.762;2022-12-04T13:16:49;3.70;99.90
12481;DHT22;6305;48.398;11.762;2022-12-04T13:19:21;3.60;99.90
12481;DHT22;6305;48.398;11.762;2022-12-04T13:21:56;3.60;99.90
12481;DHT22;6305;48.398;11.762;2022-12-04T13:27:26;3.50;99.90
12481;DHT22;6305;48.398;11.762;2022-12-04T13:30:04;3.50;99.90
12481;DHT22;6305;48.398;11.762;2022-12-04T13:38:37;3.50;99.90
12481;DHT22;6305;48.398;11.762;2022-12-04T13:41:10;3.50;99.90
12481;DHT22;6305;48.398;11.762;2022-12-04T13:43:44;3.50;99.90
12481;DHT22;6305;48.398;11.762;2022-12-04T13:46:24;3.50;99.90
12481;DHT22;6305;48.398;11.762;2022-12-04T13:48:52;3.50;99.90
12481;DHT22;6305;48.398;11.762;2022-12-04T13:51:33;3.50;99.90
12481;DHT22;6305;48.398;11.762;2022-12-04T13:56:46;3.50;99.90
12481;DHT22;6305;48.398;11.762;2022-12-04T13:59:21;3.50;99.90
12481;DHT22;6305;48.398;11.762;2022-12-04T14:01:50;3.50;99.90
12481;DHT22;6305;48.398;11.762;2022-12-04T14:04:25;3.50;99.90
12481;DHT22;6305;48.398;11.762;2022-12-04T14:06:56;3.50;99.90
12481;DHT22;6305;48.398;11.762;2022-12-04T14:09:25;3.40;99.90
12481;DHT22;6305;48.398;11.762;2022-12-04T14:11:56;3.40;99.90
12481;DHT22;6305;48.398;11.762;2022-12-04T14:14:27;3.40;99.90
12481;DHT22;6305;48.398;11.762;2022-12-04T14:16:55;3.40;99.90
12481;DHT22;6305;48.398;11.762;2022-12-04T14:28:43;3.30;99.90
12481;DHT22;6305;48.398;11.762;2022-12-04T14:31:22;3.30;99.90
12481;DHT22;6305;48.398;11.762;2022-12-04T14:33:55;3.30;99.90
12481;DHT22;6305;48.398;11.762;2022-12-04T14:36:24;3.30;99.90
12481;DHT22;6305;48.398;11.762;2022-12-04T14:38:59;3.30;99.90
12481;DHT22;6305;48.398;11.762;2022-12-04T14:41:27;3.20;99.90
12481;DHT22;6305;48.398;11.762;2022-12-04T14:43:56;3.30;99.90
12481;DHT22;6305;48.398;11.762;2022-12-04T14:46:32;3.20;99.90
12481;DHT22;6305;48.398;11.762;2022-12-04T14:49:13;3.20;99.90
12481;DHT22;6305;48.398;11.762;2022-12-04T14:51:47;3.20;99.90
12481;DHT22;6305;48.398;11.762;2022-12-04T14:54:22;3.20;99.90
12481;DHT22;6305;48.398;11.762;2022-12-04T14:57:00;3.20;99.90
12481;DHT22;6305;48.398;11.762;2022-12-04T14:59:41;3.30;99.90
12481;DHT22;6305;48.398;11.762;2022-12-04T15:02:11;3.30;99.90
12481;DHT22;6305;48.398;11.762;2022-12-04T15:04:39;3.20;99.90
12481;DHT22;6305;48.398;11.762;2022-12-04T15:07:15;3.30;99.90
12481;DHT22;6305;48.398;11.762;2022-12-04T15:09:50;3.30;99.90
12481;DHT22;6305;48.398;11.762;2022-12-04T15:12:40;3.30;99.90
12481;DHT22;6305;48.398;11.762;2022-12-04T15:15:15;3.30;99.90
12481;DHT22;6305;48.398;11.762;2022-12-04T15:17:55;3.20;99.90
12481;DHT22;6305;48.398;11.762;2022-12-04T15:20:22;3.20;99.90
12481;DHT22;6305;48.398;11.762;2022-12-04T15:22:50;3.20;99.90
12481;DHT22;6305;48.398;11.762;2022-12-04T15:25:21;3.20;99.90
12481;DHT22;6305;48.398;11.762;2022-12-04T15:27:50;3.20;99.90
12481;DHT22;6305;48.398;11.762;2022-12-04T15:30:22;3.20;99.90
12481;DHT22;6305;48.398;11.762;2022-12-04T15:32:51;3.20;99.90
12481;DHT22;6305;48.398;11.762;2022-12-04T15:35:22;3.20;99.90
12481;DHT22;6305;48.398;11.762;2022-12-04T15:37:52;3.20;99.90
12481;DHT22;6305;48.398;11.762;2022-12-04T15:40:23;3.20;99.90
12481;DHT22;6305;48.398;11.762;2022-12-04T15:42:51;3.30;99.90
12481;DHT22;6305;48.398;11.762;2022-12-04T15:45:28;3.30;99.90
12481;DHT22;6305;48.398;11.762;2022-12-04T15:48:00;3.30;99.90
12481;DHT22;6305;48.398;11.762;2022-12-04T15:50:28;3.30;99.90
12481;DHT22;6305;48.398;11.762;2022-12-04T15:53:04;3.30;99.90
12481;DHT22;6305;48.398;11.762;2022-12-04T15:55:35;3.30;99.90
12481;DHT22;6305;48.398;11.762;2022-12-04T15:58:06;3.30;99.90
12481;DHT22;6305;48.398;11.762;2022-12-04T16:00:37;3.30;99.90
12481;DHT22;6305;48.398;11.762;2022-12-04T16:03:18;3.20;99.90
12481;DHT22;6305;48.398;11.762;2022-12-04T16:05:47;3.20;99.90
12481;DHT22;6305;48.398;11.762;2022-12-04T16:08:24;3.20;99.90
12481;DHT22;6305;48.398;11.762;2022-12-04T16:10:57;3.20;99.90
12481;DHT22;6305;48.398;11.762;2022-12-04T16:13:29;3.20;99.90
12481;DHT22;6305;48.398;11.762;2022-12-04T16:15:59;3.20;99.90
12481;DHT22;6305;48.398;11.762;2022-12-04T16:18:26;3.20;99.90
12481;DHT22;6305;48.398;11.762;2022-12-04T16:20:54;3.20;99.90
12481;DHT22;6305;48.398;11.762;2022-12-04T16:23:23;3.20;99.90
12481;DHT22;6305;48.398;11.762;2022-12-04T16:25:50;3.20;99.90
12481;DHT22;6305;48.398;11.762;2022-12-04T16:28:17;3.10;99.90
12481;DHT22;6305;48.398;11.762;2022-12-04T16:30:44;3.20;99.90